sensor_id;sensor_type;location;lat;lon;timestamp;P1;P2;P0
60816;PMS5003;51921;51.518;-3.188;2022-09-13T00:01:45;8;7;
60816;PMS5003;51921;51.518;-3.188;2022-09-13T00:04:10;10;9;
60816;PMS5003;51921;51.518;-3.188;2022-09-13T00:06:35;7;7;
60816;PMS5003;51921;51.518;-3.188;2022-09-13T00:09:01;9;9;
60816;PMS5003;51921;51.518;-3.188;2022-09-13T00:11:27;8;8;
60816;PMS5003;51921;51.518;-3.188;2022-09-13T00:13:52;10;9;
60816;PMS5003;51921;51.518;-3.188;2022-09-13T00:16:18;8;8;
60816;PMS5003;51921;51.518;-3.188;2022-09-13T00:18:42;8;8;
60816;PMS5003;51921;51.518;-3.188;2022-09-13T00:21:09;8;8;
60816;PMS5003;51921;51.518;-3.188;2022-09-13T00:23:33;8;8;
60816;PMS5003;51921;51.518;-3.188;2022-09-13T00:26:03;9;9;
60816;PMS5003;51921;51.518;-3.188;2022-09-13T00:28:23;8;8;
60816;PMS5003;51921;51.518;-3.188;2022-09-13T00:30:49;9;9;
60816;PMS5003;51921;51.518;-3.188;2022-09-13T00:33:14;9;9;
60816;PMS5003;51921;51.518;-3.188;2022-09-13T00:35:39;10;10;
60816;PMS5003;51921;51.518;-3.188;2022-09-13T00:38:05;9;9;
60816;PMS5003;51921;51.518;-3.188;2022-09-13T00:40:30;9;9;
60816;PMS5003;51921;51.518;-3.188;2022-09-13T00:42:56;11;10;
60816;PMS5003;51921;51.518;-3.188;2022-09-13T00:45:21;9;9;
60816;PMS5003;51921;51.518;-3.188;2022-09-13T00:47:47;8;8;
60816;PMS5003;51921;51.518;-3.188;2022-09-13T00:50:13;10;9;
60816;PMS5003;51921;51.518;-3.188;2022-09-13T00:52:36;10;10;
60816;PMS5003;51921;51.518;-3.188;2022-09-13T00:55:04;8;7;
60816;PMS5003;51921;51.518;-3.188;2022-09-13T00:57:27;9;9;
60816;PMS5003;51921;51.518;-3.188;2022-09-13T00:59:55;11;10;
60816;PMS5003;51921;51.518;-3.188;2022-09-13T01:02:18;12;11;
60816;PMS5003;51921;51.518;-3.188;2022-09-13T01:04:43;13;13;
60816;PMS5003;51921;51.518;-3.188;2022-09-13T01:07:10;10;10;
60816;PMS5003;51921;51.518;-3.188;2022-09-13T01:09:34;12;11;
60816;PMS5003;51921;51.518;-3.188;2022-09-13T01:12:01;10;9;
60816;PMS5003;51921;51.518;-3.188;2022-09-13T01:14:25;10;9;
60816;PMS5003;51921;51.518;-3.188;2022-09-13T01:16:51;9;9;
60816;PMS5003;51921;51.518;-3.188;2022-09-13T01:19:16;12;12;
60816;PMS5003;51921;51.518;-3.188;2022-09-13T01:26:39;10;10;
60816;PMS5003;51921;51.518;-3.188;2022-09-13T01:31:23;15;14;
60816;PMS5003;51921;51.518;-3.188;2022-09-13T01:33:51;11;11;
60816;PMS5003;51921;51.518;-3.188;2022-09-13T01:36:18;16;16;
60816;PMS5003;51921;51.518;-3.188;2022-09-13T01:38:42;16;15;
60816;PMS5003;51921;51.518;-3.188;2022-09-13T01:41:06;15;14;
60816;PMS5003;51921;51.518;-3.188;2022-09-13T01:43:32;13;12;
60816;PMS5003;51921;51.518;-3.188;2022-09-13T01:45:56;13;12;
60816;PMS5003;51921;51.518;-3.188;2022-09-13T01:48:20;13;13;
60816;PMS5003;51921;51.518;-3.188;2022-09-13T01:50:46;16;16;
60816;PMS5003;51921;51.518;-3.188;2022-09-13T01:53:13;17;17;
60816;PMS5003;51921;51.518;-3.188;2022-09-13T01:55:37;14;13;
60816;PMS5003;51921;51.518;-3.188;2022-09-13T01:58:03;15;15;
60816;PMS5003;51921;51.518;-3.188;2022-09-13T02:00:26;18;17;
60816;PMS5003;51921;51.518;-3.188;2022-09-13T02:02:51;17;17;
60816;PMS5003;51921;51.518;-3.188;2022-09-13T02:05:18;18;16;
60816;PMS5003;51921;51.518;-3.188;2022-09-13T02:07:43;18;18;
60816;PMS5003;51921;51.518;-3.188;2022-09-13T02:10:08;17;17;
60816;PMS5003;51921;51.518;-3.188;2022-09-13T02:12:33;16;16;
60816;PMS5003;51921;51.518;-3.188;2022-09-13T02:14:59;21;20;
60816;PMS5003;51921;51.518;-3.188;2022-09-13T02:17:24;20;18;
60816;PMS5003;51921;51.518;-3.188;2022-09-13T02:19:50;13;13;
60816;PMS5003;51921;51.518;-3.188;2022-09-13T02:22:14;18;17;
60816;PMS5003;51921;51.518;-3.188;2022-09-13T02:24:40;18;16;
60816;PMS5003;51921;51.518;-3.188;2022-09-13T02:27:05;14;14;
60816;PMS5003;51921;51.518;-3.188;2022-09-13T02:29:30;19;16;
60816;PMS5003;51921;51.518;-3.188;2022-09-13T02:31:56;14;13;
60816;PMS5003;51921;51.518;-3.188;2022-09-13T02:34:21;14;13;
60816;PMS5003;51921;51.518;-3.188;2022-09-13T02:36:46;12;11;
60816;PMS5003;51921;51.518;-3.188;2022-09-13T02:39:13;11;10;
60816;PMS5003;51921;51.518;-3.188;2022-09-13T02:41:38;11;11;
60816;PMS5003;51921;51.518;-3.188;2022-09-13T02:44:04;13;13;
60816;PMS5003;51921;51.518;-3.188;2022-09-13T02:46:32;12;12;
60816;PMS5003;51921;51.518;-3.188;2022-09-13T02:48:55;11;10;
60816;PMS5003;51921;51.518;-3.188;2022-09-13T02:51:21;10;10;
60816;PMS5003;51921;51.518;-3.188;2022-09-13T02:53:44;13;11;
60816;PMS5003;51921;51.518;-3.188;2022-09-13T02:56:11;9;9;
60816;PMS5003;51921;51.518;-3.188;2022-09-13T02:58:37;8;8;
60816;PMS5003;51921;51.518;-3.188;2022-09-13T03:01:00;14;12;
60816;PMS5003;51921;51.518;-3.188;2022-09-13T03:03:26;8;8;
60816;PMS5003;51921;51.518;-3.188;2022-09-13T03:05:52;12;10;
60816;PMS5003;51921;51.518;-3.188;2022-09-13T03:08:17;8;8;
60816;PMS5003;51921;51.518;-3.188;2022-09-13T03:10:46;11;9;
60816;PMS5003;51921;51.518;-3.188;2022-09-13T03:13:12;8;8;
60816;PMS5003;51921;51.518;-3.188;2022-09-13T03:15:39;8;7;
60816;PMS5003;51921;51.518;-3.188;2022-09-13T03:18:00;7;7;
60816;PMS5003;51921;51.518;-3.188;2022-09-13T03:20:27;10;9;
60816;PMS5003;51921;51.518;-3.188;2022-09-13T03:22:54;10;8;
60816;PMS5003;51921;51.518;-3.188;2022-09-13T03:25:17;8;8;
60816;PMS5003;51921;51.518;-3.188;2022-09-13T03:27:41;8;8;
60816;PMS5003;51921;51.518;-3.188;2022-09-13T03:30:06;8;8;
60816;PMS5003;51921;51.518;-3.188;2022-09-13T03:32:34;5;5;
60816;PMS5003;51921;51.518;-3.188;2022-09-13T03:34:58;8;7;
60816;PMS5003;51921;51.518;-3.188;2022-09-13T03:37:24;7;7;
60816;PMS5003;51921;51.518;-3.188;2022-09-13T03:39:48;7;6;
60816;PMS5003;51921;51.518;-3.188;2022-09-13T03:42:15;8;8;
60816;PMS5003;51921;51.518;-3.188;2022-09-13T03:44:38;7;6;
60816;PMS5003;51921;51.518;-3.188;2022-09-13T03:47:03;7;7;
60816;PMS5003;51921;51.518;-3.188;2022-09-13T03:49:29;8;8;
60816;PMS5003;51921;51.518;-3.188;2022-09-13T03:51:54;7;7;
60816;PMS5003;51921;51.518;-3.188;2022-09-13T03:54:20;6;6;
60816;PMS5003;51921;51.518;-3.188;2022-09-13T03:59:10;7;7;
60816;PMS5003;51921;51.518;-3.188;2022-09-13T04:01:35;7;6;
60816;PMS5003;51921;51.518;-3.188;2022-09-13T04:04:01;6;6;
60816;PMS5003;51921;51.518;-3.188;2022-09-13T04:06:26;7;7;
60816;PMS5003;51921;51.518;-3.188;2022-09-13T04:08:52;7;6;
60816;PMS5003;51921;51.518;-3.188;2022-09-13T04:11:17;6;5;
60816;PMS5003;51921;51.518;-3.188;2022-09-13T04:13:42;9;8;
60816;PMS5003;51921;51.518;-3.188;2022-09-13T04:16:08;4;4;
60816;PMS5003;51921;51.518;-3.188;2022-09-13T04:18:33;5;5;
60816;PMS5003;51921;51.518;-3.188;2022-09-13T04:20:59;7;6;
60816;PMS5003;51921;51.518;-3.188;2022-09-13T04:23:24;6;5;
60816;PMS5003;51921;51.518;-3.188;2022-09-13T04:25:49;5;4;
60816;PMS5003;51921;51.518;-3.188;2022-09-13T04:28:16;6;5;
60816;PMS5003;51921;51.518;-3.188;2022-09-13T04:30:42;4;4;
60816;PMS5003;51921;51.518;-3.188;2022-09-13T04:33:05;4;4;
60816;PMS5003;51921;51.518;-3.188;2022-09-13T04:35:31;4;4;
60816;PMS5003;51921;51.518;-3.188;2022-09-13T04:37:56;6;5;
60816;PMS5003;51921;51.518;-3.188;2022-09-13T04:40:21;6;5;
60816;PMS5003;51921;51.518;-3.188;2022-09-13T04:42:47;3;3;
60816;PMS5003;51921;51.518;-3.188;2022-09-13T04:45:12;5;4;
60816;PMS5003;51921;51.518;-3.188;2022-09-13T04:47:38;6;5;
60816;PMS5003;51921;51.518;-3.188;2022-09-13T04:50:04;3;3;
60816;PMS5003;51921;51.518;-3.188;2022-09-13T04:52:28;4;4;
60816;PMS5003;51921;51.518;-3.188;2022-09-13T04:54:54;4;4;
60816;PMS5003;51921;51.518;-3.188;2022-09-13T04:57:19;4;3;
60816;PMS5003;51921;51.518;-3.188;2022-09-13T04:59:45;5;5;
60816;PMS5003;51921;51.518;-3.188;2022-09-13T05:02:10;3;2;
60816;PMS5003;51921;51.518;-3.188;2022-09-13T05:04:36;3;3;
60816;PMS5003;51921;51.518;-3.188;2022-09-13T05:07:01;5;4;
60816;PMS5003;51921;51.518;-3.188;2022-09-13T05:09:27;4;4;
60816;PMS5003;51921;51.518;-3.188;2022-09-13T05:11:52;3;2;
60816;PMS5003;51921;51.518;-3.188;2022-09-13T05:14:17;3;3;
60816;PMS5003;51921;51.518;-3.188;2022-09-13T05:16:43;6;5;
60816;PMS5003;51921;51.518;-3.188;2022-09-13T05:19:09;3;3;
60816;PMS5003;51921;51.518;-3.188;2022-09-13T05:21:34;4;4;
60816;PMS5003;51921;51.518;-3.188;2022-09-13T05:23:59;4;4;
60816;PMS5003;51921;51.518;-3.188;2022-09-13T05:26:26;3;3;
60816;PMS5003;51921;51.518;-3.188;2022-09-13T05:28:50;3;3;
60816;PMS5003;51921;51.518;-3.188;2022-09-13T05:31:16;3;3;
60816;PMS5003;51921;51.518;-3.188;2022-09-13T05:33:41;3;2;
60816;PMS5003;51921;51.518;-3.188;2022-09-13T05:36:07;5;4;
60816;PMS5003;51921;51.518;-3.188;2022-09-13T05:38:32;4;4;
60816;PMS5003;51921;51.518;-3.188;2022-09-13T05:40:58;5;5;
60816;PMS5003;51921;51.518;-3.188;2022-09-13T05:43:23;6;4;
60816;PMS5003;51921;51.518;-3.188;2022-09-13T05:45:48;4;4;
60816;PMS5003;51921;51.518;-3.188;2022-09-13T05:48:14;4;4;
60816;PMS5003;51921;51.518;-3.188;2022-09-13T05:50:39;5;4;
60816;PMS5003;51921;51.518;-3.188;2022-09-13T05:53:05;2;2;
60816;PMS5003;51921;51.518;-3.188;2022-09-13T05:55:30;5;4;
60816;PMS5003;51921;51.518;-3.188;2022-09-13T05:57:56;4;4;
60816;PMS5003;51921;51.518;-3.188;2022-09-13T06:00:21;4;3;
60816;PMS5003;51921;51.518;-3.188;2022-09-13T06:02:46;4;3;
60816;PMS5003;51921;51.518;-3.188;2022-09-13T06:05:12;4;4;
60816;PMS5003;51921;51.518;-3.188;2022-09-13T06:07:38;4;4;
60816;PMS5003;51921;51.518;-3.188;2022-09-13T06:10:03;3;3;
60816;PMS5003;51921;51.518;-3.188;2022-09-13T06:12:28;4;4;
60816;PMS5003;51921;51.518;-3.188;2022-09-13T06:14:54;3;3;
60816;PMS5003;51921;51.518;-3.188;2022-09-13T06:17:19;3;3;
60816;PMS5003;51921;51.518;-3.188;2022-09-13T06:19:44;3;3;
60816;PMS5003;51921;51.518;-3.188;2022-09-13T06:22:10;3;3;
60816;PMS5003;51921;51.518;-3.188;2022-09-13T06:24:35;3;3;
60816;PMS5003;51921;51.518;-3.188;2022-09-13T06:27:01;3;3;
60816;PMS5003;51921;51.518;-3.188;2022-09-13T06:29:26;2;2;
60816;PMS5003;51921;51.518;-3.188;2022-09-13T06:31:52;3;3;
60816;PMS5003;51921;51.518;-3.188;2022-09-13T06:34:17;3;3;
60816;PMS5003;51921;51.518;-3.188;2022-09-13T06:36:43;3;2;
60816;PMS5003;51921;51.518;-3.188;2022-09-13T06:39:08;1;1;
60816;PMS5003;51921;51.518;-3.188;2022-09-13T06:41:34;2;2;
60816;PMS5003;51921;51.518;-3.188;2022-09-13T06:44:00;3;2;
60816;PMS5003;51921;51.518;-3.188;2022-09-13T06:46:25;6;4;
60816;PMS5003;51921;51.518;-3.188;2022-09-13T06:48:50;4;3;
60816;PMS5003;51921;51.518;-3.188;2022-09-13T06:51:16;2;2;
60816;PMS5003;51921;51.518;-3.188;2022-09-13T06:53:41;1;1;
60816;PMS5003;51921;51.518;-3.188;2022-09-13T06:56:07;1;1;
60816;PMS5003;51921;51.518;-3.188;2022-09-13T06:58:32;3;3;
60816;PMS5003;51921;51.518;-3.188;2022-09-13T07:01:06;2;2;
60816;PMS5003;51921;51.518;-3.188;2022-09-13T07:03:23;4;3;
60816;PMS5003;51921;51.518;-3.188;2022-09-13T07:05:48;2;2;
60816;PMS5003;51921;51.518;-3.188;2022-09-13T07:08:13;1;1;
60816;PMS5003;51921;51.518;-3.188;2022-09-13T07:10:39;4;2;
60816;PMS5003;51921;51.518;-3.188;2022-09-13T07:13:04;2;2;
60816;PMS5003;51921;51.518;-3.188;2022-09-13T07:15:30;2;2;
60816;PMS5003;51921;51.518;-3.188;2022-09-13T07:17:55;3;3;
60816;PMS5003;51921;51.518;-3.188;2022-09-13T07:20:20;3;3;
60816;PMS5003;51921;51.518;-3.188;2022-09-13T07:22:46;3;3;
60816;PMS5003;51921;51.518;-3.188;2022-09-13T07:25:11;4;4;
60816;PMS5003;51921;51.518;-3.188;2022-09-13T07:27:37;2;2;
60816;PMS5003;51921;51.518;-3.188;2022-09-13T07:30:03;4;4;
60816;PMS5003;51921;51.518;-3.188;2022-09-13T07:32:30;4;3;
60816;PMS5003;51921;51.518;-3.188;2022-09-13T07:34:53;5;4;
60816;PMS5003;51921;51.518;-3.188;2022-09-13T07:37:19;3;3;
60816;PMS5003;51921;51.518;-3.188;2022-09-13T07:39:44;4;3;
60816;PMS5003;51921;51.518;-3.188;2022-09-13T07:42:10;4;4;
60816;PMS5003;51921;51.518;-3.188;2022-09-13T07:44:35;4;4;
60816;PMS5003;51921;51.518;-3.188;2022-09-13T07:47:01;3;3;
60816;PMS5003;51921;51.518;-3.188;2022-09-13T07:49:26;3;3;
60816;PMS5003;51921;51.518;-3.188;2022-09-13T07:51:51;3;3;
60816;PMS5003;51921;51.518;-3.188;2022-09-13T07:54:17;3;3;
60816;PMS5003;51921;51.518;-3.188;2022-09-13T07:56:42;3;3;
60816;PMS5003;51921;51.518;-3.188;2022-09-13T07:59:10;3;3;
60816;PMS5003;51921;51.518;-3.188;2022-09-13T08:01:33;3;3;
60816;PMS5003;51921;51.518;-3.188;2022-09-13T08:03:59;3;2;
60816;PMS5003;51921;51.518;-3.188;2022-09-13T08:06:25;5;4;
60816;PMS5003;51921;51.518;-3.188;2022-09-13T08:08:50;2;2;
60816;PMS5003;51921;51.518;-3.188;2022-09-13T08:11:15;2;2;
60816;PMS5003;51921;51.518;-3.188;2022-09-13T08:13:40;4;3;
60816;PMS5003;51921;51.518;-3.188;2022-09-13T08:16:06;3;3;
60816;PMS5003;51921;51.518;-3.188;2022-09-13T08:18:31;2;2;
60816;PMS5003;51921;51.518;-3.188;2022-09-13T08:20:57;3;3;
60816;PMS5003;51921;51.518;-3.188;2022-09-13T08:23:22;3;3;
60816;PMS5003;51921;51.518;-3.188;2022-09-13T08:25:47;4;3;
60816;PMS5003;51921;51.518;-3.188;2022-09-13T08:28:13;3;3;
60816;PMS5003;51921;51.518;-3.188;2022-09-13T08:30:38;4;4;
60816;PMS5003;51921;51.518;-3.188;2022-09-13T08:33:04;5;5;
60816;PMS5003;51921;51.518;-3.188;2022-09-13T08:35:30;3;3;
60816;PMS5003;51921;51.518;-3.188;2022-09-13T08:37:55;3;3;
60816;PMS5003;51921;51.518;-3.188;2022-09-13T08:40:20;3;3;
60816;PMS5003;51921;51.518;-3.188;2022-09-13T08:42:48;4;4;
60816;PMS5003;51921;51.518;-3.188;2022-09-13T08:45:11;4;3;
60816;PMS5003;51921;51.518;-3.188;2022-09-13T08:47:39;3;3;
60816;PMS5003;51921;51.518;-3.188;2022-09-13T08:50:04;3;2;
60816;PMS5003;51921;51.518;-3.188;2022-09-13T08:52:28;4;4;
60816;PMS5003;51921;51.518;-3.188;2022-09-13T08:54:53;3;2;
60816;PMS5003;51921;51.518;-3.188;2022-09-13T08:57:19;2;2;
60816;PMS5003;51921;51.518;-3.188;2022-09-13T08:59:47;4;3;
60816;PMS5003;51921;51.518;-3.188;2022-09-13T09:02:13;4;4;
60816;PMS5003;51921;51.518;-3.188;2022-09-13T09:04:36;3;3;
60816;PMS5003;51921;51.518;-3.188;2022-09-13T09:07:02;4;4;
60816;PMS5003;51921;51.518;-3.188;2022-09-13T09:09:25;6;5;
60816;PMS5003;51921;51.518;-3.188;2022-09-13T09:11:52;5;4;
60816;PMS5003;51921;51.518;-3.188;2022-09-13T09:14:17;4;3;
60816;PMS5003;51921;51.518;-3.188;2022-09-13T09:16:42;3;3;
60816;PMS5003;51921;51.518;-3.188;2022-09-13T09:19:12;3;3;
60816;PMS5003;51921;51.518;-3.188;2022-09-13T09:21:32;4;4;
60816;PMS5003;51921;51.518;-3.188;2022-09-13T09:23:58;3;3;
60816;PMS5003;51921;51.518;-3.188;2022-09-13T09:26:24;5;4;
60816;PMS5003;51921;51.518;-3.188;2022-09-13T09:28:49;4;4;
60816;PMS5003;51921;51.518;-3.188;2022-09-13T09:31:15;7;4;
60816;PMS5003;51921;51.518;-3.188;2022-09-13T09:33:43;5;4;
60816;PMS5003;51921;51.518;-3.188;2022-09-13T09:36:06;4;4;
60816;PMS5003;51921;51.518;-3.188;2022-09-13T09:38:32;4;4;
60816;PMS5003;51921;51.518;-3.188;2022-09-13T09:40:55;4;4;
60816;PMS5003;51921;51.518;-3.188;2022-09-13T09:43:22;4;3;
60816;PMS5003;51921;51.518;-3.188;2022-09-13T09:45:46;3;3;
60816;PMS5003;51921;51.518;-3.188;2022-09-13T09:48:13;5;4;
60816;PMS5003;51921;51.518;-3.188;2022-09-13T09:50:38;4;4;
60816;PMS5003;51921;51.518;-3.188;2022-09-13T09:53:04;2;2;
60816;PMS5003;51921;51.518;-3.188;2022-09-13T09:55:29;5;4;
60816;PMS5003;51921;51.518;-3.188;2022-09-13T09:57:55;4;4;
60816;PMS5003;51921;51.518;-3.188;2022-09-13T10:00:20;3;3;
60816;PMS5003;51921;51.518;-3.188;2022-09-13T10:02:44;3;3;
60816;PMS5003;51921;51.518;-3.188;2022-09-13T10:05:10;5;4;
60816;PMS5003;51921;51.518;-3.188;2022-09-13T10:07:35;5;4;
60816;PMS5003;51921;51.518;-3.188;2022-09-13T10:10:02;4;4;
60816;PMS5003;51921;51.518;-3.188;2022-09-13T10:12:26;4;4;
60816;PMS5003;51921;51.518;-3.188;2022-09-13T10:14:52;4;4;
60816;PMS5003;51921;51.518;-3.188;2022-09-13T10:17:23;5;5;
60816;PMS5003;51921;51.518;-3.188;2022-09-13T10:19:52;3;3;
60816;PMS5003;51921;51.518;-3.188;2022-09-13T10:22:09;5;4;
60816;PMS5003;51921;51.518;-3.188;2022-09-13T10:24:34;8;6;
60816;PMS5003;51921;51.518;-3.188;2022-09-13T10:26:59;6;5;
60816;PMS5003;51921;51.518;-3.188;2022-09-13T10:29:25;6;5;
60816;PMS5003;51921;51.518;-3.188;2022-09-13T10:31:50;3;3;
60816;PMS5003;51921;51.518;-3.188;2022-09-13T10:34:16;5;5;
60816;PMS5003;51921;51.518;-3.188;2022-09-13T10:36:43;5;4;
60816;PMS5003;51921;51.518;-3.188;2022-09-13T10:39:07;6;5;
60816;PMS5003;51921;51.518;-3.188;2022-09-13T10:41:32;4;4;
60816;PMS5003;51921;51.518;-3.188;2022-09-13T10:43:57;4;3;
60816;PMS5003;51921;51.518;-3.188;2022-09-13T10:46:23;6;6;
60816;PMS5003;51921;51.518;-3.188;2022-09-13T10:48:48;5;4;
60816;PMS5003;51921;51.518;-3.188;2022-09-13T10:51:18;4;4;
60816;PMS5003;51921;51.518;-3.188;2022-09-13T10:53:40;5;5;
60816;PMS5003;51921;51.518;-3.188;2022-09-13T10:56:05;4;4;
60816;PMS5003;51921;51.518;-3.188;2022-09-13T10:58:29;6;5;
60816;PMS5003;51921;51.518;-3.188;2022-09-13T11:01:04;5;5;
60816;PMS5003;51921;51.518;-3.188;2022-09-13T11:03:24;5;5;
60816;PMS5003;51921;51.518;-3.188;2022-09-13T11:05:46;4;3;
60816;PMS5003;51921;51.518;-3.188;2022-09-13T11:08:15;4;4;
60816;PMS5003;51921;51.518;-3.188;2022-09-13T11:10:38;4;4;
60816;PMS5003;51921;51.518;-3.188;2022-09-13T11:13:04;5;4;
60816;PMS5003;51921;51.518;-3.188;2022-09-13T11:15:30;4;4;
60816;PMS5003;51921;51.518;-3.188;2022-09-13T11:17:58;5;5;
60816;PMS5003;51921;51.518;-3.188;2022-09-13T11:20:21;4;4;
60816;PMS5003;51921;51.518;-3.188;2022-09-13T11:22:49;4;3;
60816;PMS5003;51921;51.518;-3.188;2022-09-13T11:25:12;5;5;
60816;PMS5003;51921;51.518;-3.188;2022-09-13T11:27:37;3;3;
60816;PMS5003;51921;51.518;-3.188;2022-09-13T11:30:04;4;3;
60816;PMS5003;51921;51.518;-3.188;2022-09-13T11:32:29;6;4;
60816;PMS5003;51921;51.518;-3.188;2022-09-13T11:34:55;4;4;
60816;PMS5003;51921;51.518;-3.188;2022-09-13T11:37:21;3;3;
60816;PMS5003;51921;51.518;-3.188;2022-09-13T11:39:43;4;4;
60816;PMS5003;51921;51.518;-3.188;2022-09-13T11:42:15;4;4;
60816;PMS5003;51921;51.518;-3.188;2022-09-13T11:44:40;4;4;
60816;PMS5003;51921;51.518;-3.188;2022-09-13T11:47:00;8;5;
60816;PMS5003;51921;51.518;-3.188;2022-09-13T11:51:50;3;3;
60816;PMS5003;51921;51.518;-3.188;2022-09-13T11:54:18;4;4;
60816;PMS5003;51921;51.518;-3.188;2022-09-13T11:56:40;5;5;
60816;PMS5003;51921;51.518;-3.188;2022-09-13T11:59:09;4;4;
60816;PMS5003;51921;51.518;-3.188;2022-09-13T12:01:31;5;5;
60816;PMS5003;51921;51.518;-3.188;2022-09-13T12:03:57;7;6;
60816;PMS5003;51921;51.518;-3.188;2022-09-13T12:06:22;4;4;
60816;PMS5003;51921;51.518;-3.188;2022-09-13T12:08:47;4;3;
60816;PMS5003;51921;51.518;-3.188;2022-09-13T12:11:14;5;5;
60816;PMS5003;51921;51.518;-3.188;2022-09-13T12:13:40;5;4;
60816;PMS5003;51921;51.518;-3.188;2022-09-13T12:16:03;3;3;
60816;PMS5003;51921;51.518;-3.188;2022-09-13T12:18:29;4;4;
60816;PMS5003;51921;51.518;-3.188;2022-09-13T12:20:54;5;4;
60816;PMS5003;51921;51.518;-3.188;2022-09-13T12:23:20;5;5;
60816;PMS5003;51921;51.518;-3.188;2022-09-13T12:25:46;6;5;
60816;PMS5003;51921;51.518;-3.188;2022-09-13T12:28:12;7;7;
60816;PMS5003;51921;51.518;-3.188;2022-09-13T12:30:38;5;5;
60816;PMS5003;51921;51.518;-3.188;2022-09-13T12:33:00;3;3;
60816;PMS5003;51921;51.518;-3.188;2022-09-13T12:35:26;5;4;
60816;PMS5003;51921;51.518;-3.188;2022-09-13T12:37:57;5;5;
60816;PMS5003;51921;51.518;-3.188;2022-09-13T12:40:23;6;5;
60816;PMS5003;51921;51.518;-3.188;2022-09-13T12:42:46;5;5;
60816;PMS5003;51921;51.518;-3.188;2022-09-13T12:45:14;4;4;
60816;PMS5003;51921;51.518;-3.188;2022-09-13T12:47:37;5;5;
60816;PMS5003;51921;51.518;-3.188;2022-09-13T12:50:05;5;4;
60816;PMS5003;51921;51.518;-3.188;2022-09-13T12:52:26;8;8;
60816;PMS5003;51921;51.518;-3.188;2022-09-13T12:54:53;6;6;
60816;PMS5003;51921;51.518;-3.188;2022-09-13T12:57:16;6;6;
60816;PMS5003;51921;51.518;-3.188;2022-09-13T12:59:43;5;5;
60816;PMS5003;51921;51.518;-3.188;2022-09-13T13:04:31;5;5;
60816;PMS5003;51921;51.518;-3.188;2022-09-13T13:06:58;7;7;
60816;PMS5003;51921;51.518;-3.188;2022-09-13T13:09:23;6;5;
60816;PMS5003;51921;51.518;-3.188;2022-09-13T13:11:47;4;4;
60816;PMS5003;51921;51.518;-3.188;2022-09-13T13:16:38;7;5;
60816;PMS5003;51921;51.518;-3.188;2022-09-13T13:19:04;6;6;
60816;PMS5003;51921;51.518;-3.188;2022-09-13T13:21:30;6;6;
60816;PMS5003;51921;51.518;-3.188;2022-09-13T13:28:49;5;5;
60816;PMS5003;51921;51.518;-3.188;2022-09-13T13:31:10;6;6;
60816;PMS5003;51921;51.518;-3.188;2022-09-13T13:38:36;4;4;
60816;PMS5003;51921;51.518;-3.188;2022-09-13T13:40:52;3;3;
60816;PMS5003;51921;51.518;-3.188;2022-09-13T13:43:28;5;5;
60816;PMS5003;51921;51.518;-3.188;2022-09-13T13:48:10;6;6;
60816;PMS5003;51921;51.518;-3.188;2022-09-13T13:50:33;5;4;
60816;PMS5003;51921;51.518;-3.188;2022-09-13T13:53:13;6;5;
60816;PMS5003;51921;51.518;-3.188;2022-09-13T13:55:28;5;5;
60816;PMS5003;51921;51.518;-3.188;2022-09-13T13:57:51;5;5;
60816;PMS5003;51921;51.518;-3.188;2022-09-13T14:00:16;5;5;
60816;PMS5003;51921;51.518;-3.188;2022-09-13T14:02:43;7;7;
60816;PMS5003;51921;51.518;-3.188;2022-09-13T14:05:07;5;5;
60816;PMS5003;51921;51.518;-3.188;2022-09-13T14:07:37;8;6;
60816;PMS5003;51921;51.518;-3.188;2022-09-13T14:09:58;6;6;
60816;PMS5003;51921;51.518;-3.188;2022-09-13T14:12:27;7;7;
60816;PMS5003;51921;51.518;-3.188;2022-09-13T14:14:53;5;5;
60816;PMS5003;51921;51.518;-3.188;2022-09-13T14:19:39;6;6;
60816;PMS5003;51921;51.518;-3.188;2022-09-13T14:22:06;5;5;
60816;PMS5003;51921;51.518;-3.188;2022-09-13T14:24:34;5;5;
60816;PMS5003;51921;51.518;-3.188;2022-09-13T14:26:56;6;5;
60816;PMS5003;51921;51.518;-3.188;2022-09-13T14:29:21;7;6;
60816;PMS5003;51921;51.518;-3.188;2022-09-13T14:31:47;5;5;
60816;PMS5003;51921;51.518;-3.188;2022-09-13T14:36:37;6;6;
60816;PMS5003;51921;51.518;-3.188;2022-09-13T14:39:04;4;3;
60816;PMS5003;51921;51.518;-3.188;2022-09-13T14:41:29;6;5;
60816;PMS5003;51921;51.518;-3.188;2022-09-13T14:43:53;7;7;
60816;PMS5003;51921;51.518;-3.188;2022-09-13T14:46:20;7;6;
60816;PMS5003;51921;51.518;-3.188;2022-09-13T14:48:45;5;5;
60816;PMS5003;51921;51.518;-3.188;2022-09-13T14:51:13;5;5;
60816;PMS5003;51921;51.518;-3.188;2022-09-13T14:53:35;4;4;
60816;PMS5003;51921;51.518;-3.188;2022-09-13T14:56:01;6;5;
60816;PMS5003;51921;51.518;-3.188;2022-09-13T14:58:28;5;5;
60816;PMS5003;51921;51.518;-3.188;2022-09-13T15:00:55;4;4;
60816;PMS5003;51921;51.518;-3.188;2022-09-13T15:03:18;5;5;
60816;PMS5003;51921;51.518;-3.188;2022-09-13T15:05:48;6;6;
60816;PMS5003;51921;51.518;-3.188;2022-09-13T15:10:33;6;5;
60816;PMS5003;51921;51.518;-3.188;2022-09-13T15:13:05;7;6;
60816;PMS5003;51921;51.518;-3.188;2022-09-13T15:15:29;6;6;
60816;PMS5003;51921;51.518;-3.188;2022-09-13T15:17:51;6;6;
60816;PMS5003;51921;51.518;-3.188;2022-09-13T15:20:14;5;5;
60816;PMS5003;51921;51.518;-3.188;2022-09-13T15:22:40;5;5;
60816;PMS5003;51921;51.518;-3.188;2022-09-13T15:27:31;4;4;
60816;PMS5003;51921;51.518;-3.188;2022-09-13T15:29:57;5;4;
60816;PMS5003;51921;51.518;-3.188;2022-09-13T15:32:22;7;6;
60816;PMS5003;51921;51.518;-3.188;2022-09-13T15:34:47;5;5;
60816;PMS5003;51921;51.518;-3.188;2022-09-13T15:37:12;7;6;
60816;PMS5003;51921;51.518;-3.188;2022-09-13T15:39:43;9;7;
60816;PMS5003;51921;51.518;-3.188;2022-09-13T15:42:02;6;5;
60816;PMS5003;51921;51.518;-3.188;2022-09-13T15:44:28;7;7;
60816;PMS5003;51921;51.518;-3.188;2022-09-13T15:46:54;6;6;
60816;PMS5003;51921;51.518;-3.188;2022-09-13T15:49:20;6;6;
60816;PMS5003;51921;51.518;-3.188;2022-09-13T15:51:45;8;6;
60816;PMS5003;51921;51.518;-3.188;2022-09-13T15:54:11;9;9;
60816;PMS5003;51921;51.518;-3.188;2022-09-13T15:56:35;6;6;
60816;PMS5003;51921;51.518;-3.188;2022-09-13T15:59:01;7;6;
60816;PMS5003;51921;51.518;-3.188;2022-09-13T16:01:26;20;19;
60816;PMS5003;51921;51.518;-3.188;2022-09-13T16:03:52;8;7;
60816;PMS5003;51921;51.518;-3.188;2022-09-13T16:06:17;6;5;
60816;PMS5003;51921;51.518;-3.188;2022-09-13T16:08:42;6;6;
60816;PMS5003;51921;51.518;-3.188;2022-09-13T16:11:07;7;7;
60816;PMS5003;51921;51.518;-3.188;2022-09-13T16:13:33;6;5;
60816;PMS5003;51921;51.518;-3.188;2022-09-13T16:15:58;8;7;
60816;PMS5003;51921;51.518;-3.188;2022-09-13T16:18:24;5;4;
60816;PMS5003;51921;51.518;-3.188;2022-09-13T16:20:49;7;6;
60816;PMS5003;51921;51.518;-3.188;2022-09-13T16:23:14;6;5;
60816;PMS5003;51921;51.518;-3.188;2022-09-13T16:25:41;6;6;
60816;PMS5003;51921;51.518;-3.188;2022-09-13T16:28:06;7;7;
60816;PMS5003;51921;51.518;-3.188;2022-09-13T16:30:31;7;6;
60816;PMS5003;51921;51.518;-3.188;2022-09-13T16:32:56;7;7;
60816;PMS5003;51921;51.518;-3.188;2022-09-13T16:35:22;9;8;
60816;PMS5003;51921;51.518;-3.188;2022-09-13T16:37:47;8;8;
60816;PMS5003;51921;51.518;-3.188;2022-09-13T16:40:12;4;4;
60816;PMS5003;51921;51.518;-3.188;2022-09-13T16:42:38;6;6;
60816;PMS5003;51921;51.518;-3.188;2022-09-13T16:45:04;8;8;
60816;PMS5003;51921;51.518;-3.188;2022-09-13T16:47:28;7;7;
60816;PMS5003;51921;51.518;-3.188;2022-09-13T16:49:54;8;8;
60816;PMS5003;51921;51.518;-3.188;2022-09-13T16:52:19;8;7;
60816;PMS5003;51921;51.518;-3.188;2022-09-13T16:54:44;8;8;
60816;PMS5003;51921;51.518;-3.188;2022-09-13T16:57:10;7;7;